HBBA

Bujumbura International Airport

Bujumbura, Burundi
METAR HBBA 230500Z 09002KT 9999 FEW030 BKN100 21/19 Q1011 NOSIG
Observed Flight Rules
Feb-23 @ 05:00 UTC (10 hours ago) Visual Flight Rules
Wind Visibility Clouds
90° at 2 knots 10,000+ meters
  • Few at 3,000' AGL
  • Broken at 10,000' AGL
Temperatures Readings
Current 21°C / 70°F
Dewpoint 19°C / 66°F
Humidity 88%
Altimeter 29.85" Hg
Pressure 1011 hPa
Elevation 783
METAR HBBA 230500Z 09002KT 9999 FEW030 BKN100 21/19 Q1011 NOSIG
Observed Flight Rules
Feb-23 @ 05:00 UTC
(10 hours ago)
VFR
Wind Visibility
90° at 2 knots 10,000+ meters
Clouds
  • Few at 3,000' AGL
  • Broken at 10,000' AGL
Temperature Dewpoint
21°C / 70°F 19°C / 66°F
Humidity Altimeter Pressure
88% 29.85" Hg 1011 hPa